createdAt,value
2022-11-18T00:00:28.487Z,8.48
2022-11-18T00:05:32.024Z,8.73
2022-11-18T00:10:34.081Z,9.50
2022-11-18T00:15:35.788Z,11.25
2022-11-18T00:20:39.228Z,10.73
2022-11-18T00:25:42.451Z,9.25
2022-11-18T00:30:47.112Z,10.02
2022-11-18T00:35:55.826Z,10.25
2022-11-18T00:41:12.299Z,10.63
2022-11-18T00:46:14.158Z,22.08
2022-11-18T00:51:19.282Z,10.48
2022-11-18T00:56:22.014Z,11.82
2022-11-18T01:01:24.417Z,10.45
2022-11-18T01:06:26.252Z,12.65
2022-11-18T01:11:46.800Z,10.32
2022-11-18T01:16:51.358Z,10.18
2022-11-18T01:21:54.008Z,11.27
2022-11-18T01:26:56.017Z,10.55
2022-11-18T01:37:20.739Z,9.15
2022-11-18T01:42:22.660Z,9.88
2022-11-18T01:47:30.636Z,9.18
2022-11-18T01:52:36.375Z,11.35
2022-11-18T01:57:38.285Z,10.05
2022-11-18T02:02:40.300Z,9.75
2022-11-18T02:07:43.634Z,10.00
2022-11-18T02:12:45.639Z,9.38
2022-11-18T02:17:58.655Z,10.65
2022-11-18T02:23:36.535Z,10.55
2022-11-18T02:28:53.690Z,11.80
2022-11-18T02:34:47.087Z,13.90
2022-11-18T02:39:57.993Z,10.02
2022-11-18T02:45:06.291Z,11.15
2022-11-18T02:50:14.420Z,8.90
2022-11-18T02:55:17.820Z,10.45
2022-11-18T03:00:19.554Z,10.13
2022-11-18T03:05:36.123Z,9.65
2022-11-18T03:10:58.775Z,12.02
2022-11-18T03:16:14.848Z,9.48
2022-11-18T03:21:24.198Z,9.25
2022-11-18T03:26:33.221Z,8.32
2022-11-18T03:31:46.724Z,8.00
2022-11-18T03:36:56.184Z,8.80
2022-11-18T03:42:25.852Z,8.38
2022-11-18T03:47:38.531Z,8.48
2022-11-18T03:52:41.716Z,7.85
2022-11-18T03:58:25.064Z,7.60
2022-11-18T04:03:28.312Z,6.13
2022-11-18T04:08:37.581Z,32.92
2022-11-18T04:13:39.481Z,7.50
2022-11-18T04:18:42.214Z,7.70
2022-11-18T04:23:43.907Z,11.35
2022-11-18T04:28:46.725Z,6.75
2022-11-18T04:33:48.579Z,4.47
2022-11-18T04:38:50.381Z,5.10
2022-11-18T04:43:51.972Z,4.22
2022-11-18T04:48:53.579Z,4.95
2022-11-18T04:53:55.190Z,5.38
2022-11-18T04:59:00.139Z,5.35
2022-11-18T05:04:02.267Z,5.32
2022-11-18T05:09:04.325Z,5.30
2022-11-18T05:14:05.941Z,5.60
2022-11-18T05:19:08.419Z,5.85
2022-11-18T05:24:10.511Z,5.50
2022-11-18T05:29:13.088Z,5.22
2022-11-18T05:34:15.976Z,5.47
2022-11-18T05:39:17.970Z,5.45
2022-11-18T05:44:19.799Z,4.53
2022-11-18T05:49:21.600Z,5.57
2022-11-18T05:54:23.307Z,5.97
2022-11-18T05:59:24.914Z,6.85
2022-11-18T06:04:41.543Z,5.50
2022-11-18T06:09:49.293Z,5.10
2022-11-18T06:14:55.081Z,5.88
2022-11-18T06:19:58.061Z,5.13
2022-11-18T06:25:01.197Z,5.25
2022-11-18T06:30:03.232Z,5.63
2022-11-18T06:35:05.390Z,5.43
2022-11-18T06:40:07.850Z,5.88
2022-11-18T06:45:09.891Z,5.25
2022-11-18T06:50:11.741Z,5.38
2022-11-18T06:55:13.415Z,5.55
2022-11-18T07:00:16.001Z,5.18
2022-11-18T07:05:17.606Z,4.82
2022-11-18T07:10:19.455Z,4.60
2022-11-18T07:15:21.022Z,4.93
2022-11-18T07:20:22.655Z,4.32
2022-11-18T07:25:24.298Z,3.95
2022-11-18T07:30:25.992Z,8.27
2022-11-18T07:35:27.565Z,4.85
2022-11-18T07:40:29.165Z,5.13
2022-11-18T07:45:30.781Z,3.25
2022-11-18T07:50:32.527Z,2.20
2022-11-18T07:55:34.191Z,2.10
2022-11-18T08:00:35.809Z,2.10
2022-11-18T08:05:37.617Z,2.70
2022-11-18T08:10:39.322Z,2.55
2022-11-18T08:15:44.111Z,2.78
2022-11-18T08:20:46.277Z,2.20
2022-11-18T08:25:48.082Z,1.95
2022-11-18T08:30:50.211Z,1.88
2022-11-18T08:35:51.814Z,2.10
2022-11-18T08:40:53.654Z,1.73
2022-11-18T08:45:55.445Z,2.00
2022-11-18T08:50:58.767Z,2.13
2022-11-18T08:56:01.456Z,1.40
2022-11-18T09:01:06.966Z,1.45
2022-11-18T09:06:10.717Z,1.27
2022-11-18T09:11:18.826Z,1.08
2022-11-18T09:16:27.693Z,0.70
2022-11-18T09:21:30.028Z,0.70
2022-11-18T09:26:32.069Z,0.50
2022-11-18T09:31:33.820Z,0.60
2022-11-18T09:36:35.478Z,0.50
2022-11-18T09:42:21.230Z,0.45
2022-11-18T09:47:34.435Z,0.60
2022-11-18T09:52:46.628Z,0.60
2022-11-18T09:57:55.637Z,1.33
2022-11-18T10:03:05.071Z,0.73
2022-11-18T10:08:28.827Z,0.65
2022-11-18T10:14:02.590Z,0.82
2022-11-18T10:19:16.518Z,0.40
2022-11-18T10:24:25.446Z,0.60
2022-11-18T10:29:27.727Z,0.32
2022-11-18T10:34:29.825Z,0.40
2022-11-18T10:39:31.857Z,0.38
2022-11-18T10:44:39.827Z,0.40
2022-11-18T10:49:41.557Z,0.40
2022-11-18T10:54:43.365Z,0.25
2022-11-18T10:59:54.234Z,0.43
2022-11-18T11:04:56.086Z,3.22
2022-11-18T11:10:13.472Z,0.70
2022-11-18T11:15:21.172Z,0.40
2022-11-18T11:20:26.905Z,1.95
2022-11-18T11:31:15.452Z,1.05
2022-11-18T11:41:24.354Z,0.40
2022-11-18T11:47:07.782Z,0.30
2022-11-18T11:52:24.854Z,0.30
2022-11-18T11:58:01.911Z,0.85
2022-11-18T12:03:41.320Z,0.40
2022-11-18T12:08:56.589Z,0.55
2022-11-18T12:14:38.535Z,1.05
2022-11-18T12:19:41.590Z,0.70
2022-11-18T12:24:43.400Z,0.40
2022-11-18T12:29:51.237Z,1.10
2022-11-18T12:35:00.905Z,29.42
2022-11-18T12:40:02.510Z,3.70
2022-11-18T12:45:46.014Z,1.55
2022-11-18T12:50:49.751Z,0.70
2022-11-18T12:55:52.198Z,0.60
2022-11-18T13:01:08.711Z,0.50
2022-11-18T13:06:30.792Z,1.40
2022-11-18T13:11:46.547Z,0.60
2022-11-18T13:17:07.511Z,0.65
2022-11-18T13:22:39.531Z,19.02
2022-11-18T13:27:52.558Z,0.60
2022-11-18T13:32:58.101Z,0.70
2022-11-18T13:38:02.550Z,0.45
2022-11-18T13:43:04.259Z,0.57
2022-11-18T13:48:13.047Z,0.50
2022-11-18T13:53:27.332Z,0.70
2022-11-18T13:59:10.474Z,1.60
2022-11-18T14:04:19.355Z,0.50
2022-11-18T14:09:31.869Z,0.60
2022-11-18T14:14:36.026Z,0.38
2022-11-18T14:19:38.980Z,0.50
2022-11-18T14:24:42.185Z,0.57
2022-11-18T14:29:50.502Z,1.23
2022-11-18T14:35:00.364Z,0.68
2022-11-18T14:40:02.061Z,1.88
2022-11-18T14:45:03.868Z,2.47
2022-11-18T14:50:12.901Z,0.73
2022-11-18T14:55:14.600Z,0.65
2022-11-18T15:00:17.238Z,0.57
2022-11-18T15:05:18.898Z,0.60
2022-11-18T15:10:20.500Z,0.80
2022-11-18T15:15:22.206Z,0.80
2022-11-18T15:20:23.911Z,0.60
2022-11-18T15:25:25.511Z,0.73
2022-11-18T15:30:27.116Z,1.13
2022-11-18T15:35:28.892Z,1.30
2022-11-18T15:40:30.565Z,0.60
2022-11-18T15:45:32.433Z,1.13
2022-11-18T15:50:34.016Z,0.85
2022-11-18T15:55:35.637Z,0.70
2022-11-18T16:00:37.312Z,0.60
2022-11-18T16:05:38.956Z,0.90
2022-11-18T16:10:59.353Z,0.90
2022-11-18T16:16:01.097Z,1.30
2022-11-18T16:21:02.682Z,1.30
2022-11-18T16:26:04.396Z,1.50
2022-11-18T16:31:25.839Z,1.60
2022-11-18T16:36:28.185Z,1.52
2022-11-18T16:41:32.768Z,1.60
2022-11-18T16:46:37.526Z,1.70
2022-11-18T16:51:44.517Z,1.92
2022-11-18T16:56:47.896Z,2.03
2022-11-18T17:01:51.237Z,1.85
2022-11-18T17:06:54.176Z,1.80
2022-11-18T17:11:56.104Z,2.10
2022-11-18T17:16:57.860Z,2.50
2022-11-18T17:21:59.521Z,6.20
2022-11-18T17:27:01.150Z,2.30
2022-11-18T17:32:02.784Z,2.20
2022-11-18T17:37:07.080Z,2.15
2022-11-18T17:42:14.980Z,2.60
2022-11-18T17:47:17.078Z,2.60
2022-11-18T17:52:19.670Z,2.20
2022-11-18T17:57:21.488Z,0.90
2022-11-18T18:02:23.189Z,0.60
2022-11-18T18:07:24.921Z,0.90
2022-11-18T18:12:45.137Z,0.30
2022-11-18T18:17:49.264Z,0.20
2022-11-18T18:22:51.128Z,0.40
2022-11-18T18:27:53.833Z,0.10
2022-11-18T18:32:55.439Z,0.20
2022-11-18T18:37:58.620Z,1.65
2022-11-18T18:43:00.422Z,0.10
2022-11-18T18:48:05.298Z,0.20
2022-11-18T18:53:10.000Z,0.13
2022-11-18T18:58:11.844Z,0.20
2022-11-18T19:03:15.948Z,0.20
2022-11-18T19:08:19.297Z,0.22
2022-11-18T19:13:21.115Z,0.30
2022-11-18T19:18:27.484Z,0.73
2022-11-18T19:23:32.084Z,0.93
2022-11-18T19:28:38.368Z,2.78
2022-11-18T19:33:40.280Z,1.50
2022-11-18T19:38:42.075Z,0.28
2022-11-18T19:43:44.980Z,0.70
2022-11-18T19:48:48.691Z,2.42
2022-11-18T19:53:52.740Z,0.60
2022-11-18T19:58:59.334Z,0.40
2022-11-18T20:04:03.245Z,0.40
2022-11-18T20:09:10.411Z,0.40
2022-11-18T20:14:12.526Z,0.40
2022-11-18T20:19:15.698Z,0.50
2022-11-18T20:24:19.023Z,0.70
2022-11-18T20:29:23.705Z,0.50
2022-11-18T20:34:26.844Z,0.30
2022-11-18T20:39:29.408Z,0.50
2022-11-18T20:44:33.500Z,0.80
2022-11-18T20:49:35.850Z,0.70
2022-11-18T20:54:39.797Z,0.88
2022-11-18T20:59:44.167Z,0.90
2022-11-18T21:04:47.738Z,0.80
2022-11-18T21:09:50.506Z,0.90
2022-11-18T21:14:52.235Z,0.98
2022-11-18T21:19:53.866Z,1.08
2022-11-18T21:24:56.141Z,1.00
2022-11-18T21:30:02.350Z,1.40
2022-11-18T21:35:04.901Z,1.45
2022-11-18T21:40:07.243Z,1.08
2022-11-18T21:45:11.370Z,1.13
2022-11-18T21:50:13.426Z,1.15
2022-11-18T21:55:16.774Z,0.93
2022-11-18T22:00:19.892Z,1.02
2022-11-18T22:05:21.611Z,0.93
2022-11-18T22:10:24.354Z,1.45
2022-11-18T22:15:26.167Z,1.63
2022-11-18T22:20:27.967Z,1.30
2022-11-18T22:25:30.366Z,1.20
2022-11-18T22:30:33.660Z,1.20
2022-11-18T22:35:36.040Z,1.48
2022-11-18T22:40:38.048Z,1.00
2022-11-18T22:45:41.120Z,1.20
2022-11-18T22:50:44.014Z,1.10
2022-11-18T22:55:45.713Z,1.10
2022-11-18T23:00:49.796Z,1.10
2022-11-18T23:05:51.682Z,1.08
2022-11-18T23:10:54.275Z,1.02
2022-11-18T23:15:59.477Z,1.27
2022-11-18T23:21:04.780Z,0.93
2022-11-18T23:26:10.496Z,0.70
2022-11-18T23:31:14.820Z,0.88
2022-11-18T23:36:21.970Z,1.50
2022-11-18T23:41:23.621Z,0.90
2022-11-18T23:46:27.514Z,0.85
2022-11-18T23:51:30.168Z,0.93
2022-11-18T23:56:37.482Z,0.60
